sensor_id;sensor_type;location;lat;lon;timestamp;P1;durP1;ratioP1;P2;durP2;ratioP2
33022;SDS011;19390;51.460;5.710;2023-12-20T00:00:59;22.25;;;6.75;;
33022;SDS011;19390;51.460;5.710;2023-12-20T00:03:24;14.10;;;6.07;;
33022;SDS011;19390;51.460;5.710;2023-12-20T00:05:50;17.85;;;6.72;;
33022;SDS011;19390;51.460;5.710;2023-12-20T00:08:16;18.20;;;6.32;;
33022;SDS011;19390;51.460;5.710;2023-12-20T00:10:42;27.15;;;6.32;;
33022;SDS011;19390;51.460;5.710;2023-12-20T00:13:08;19.38;;;5.53;;
33022;SDS011;19390;51.460;5.710;2023-12-20T00:15:34;16.02;;;4.75;;
33022;SDS011;19390;51.460;5.710;2023-12-20T00:18:00;16.55;;;4.82;;
33022;SDS011;19390;51.460;5.710;2023-12-20T00:20:26;12.18;;;5.40;;
33022;SDS011;19390;51.460;5.710;2023-12-20T00:22:51;23.55;;;5.15;;
33022;SDS011;19390;51.460;5.710;2023-12-20T00:25:18;17.45;;;5.03;;
33022;SDS011;19390;51.460;5.710;2023-12-20T00:27:44;17.83;;;4.28;;
33022;SDS011;19390;51.460;5.710;2023-12-20T00:30:09;14.77;;;4.22;;
33022;SDS011;19390;51.460;5.710;2023-12-20T00:32:35;16.30;;;3.78;;
33022;SDS011;19390;51.460;5.710;2023-12-20T00:35:01;16.75;;;5.68;;
33022;SDS011;19390;51.460;5.710;2023-12-20T00:37:27;10.77;;;3.58;;
33022;SDS011;19390;51.460;5.710;2023-12-20T00:39:52;14.77;;;3.72;;
33022;SDS011;19390;51.460;5.710;2023-12-20T00:42:18;18.02;;;3.60;;
33022;SDS011;19390;51.460;5.710;2023-12-20T00:44:43;13.63;;;3.58;;
33022;SDS011;19390;51.460;5.710;2023-12-20T00:47:09;8.27;;;3.10;;
33022;SDS011;19390;51.460;5.710;2023-12-20T00:49:35;10.82;;;2.75;;
33022;SDS011;19390;51.460;5.710;2023-12-20T00:52:00;18.13;;;3.30;;
33022;SDS011;19390;51.460;5.710;2023-12-20T00:54:26;7.82;;;2.58;;
33022;SDS011;19390;51.460;5.710;2023-12-20T00:56:51;10.13;;;2.30;;
33022;SDS011;19390;51.460;5.710;2023-12-20T00:59:17;14.20;;;2.63;;
33022;SDS011;19390;51.460;5.710;2023-12-20T01:01:43;13.15;;;2.53;;
33022;SDS011;19390;51.460;5.710;2023-12-20T01:04:09;12.60;;;2.70;;
33022;SDS011;19390;51.460;5.710;2023-12-20T01:06:35;21.40;;;2.85;;
33022;SDS011;19390;51.460;5.710;2023-12-20T01:09:00;18.52;;;3.58;;
33022;SDS011;19390;51.460;5.710;2023-12-20T01:11:26;15.65;;;3.28;;
33022;SDS011;19390;51.460;5.710;2023-12-20T01:13:51;17.30;;;3.10;;
33022;SDS011;19390;51.460;5.710;2023-12-20T01:16:17;16.63;;;3.75;;
33022;SDS011;19390;51.460;5.710;2023-12-20T01:18:42;17.05;;;2.55;;
33022;SDS011;19390;51.460;5.710;2023-12-20T01:21:09;19.35;;;3.90;;
33022;SDS011;19390;51.460;5.710;2023-12-20T01:23:34;12.82;;;2.40;;
33022;SDS011;19390;51.460;5.710;2023-12-20T01:26:00;23.40;;;2.50;;
33022;SDS011;19390;51.460;5.710;2023-12-20T01:28:26;9.23;;;2.65;;
33022;SDS011;19390;51.460;5.710;2023-12-20T01:30:51;13.07;;;2.63;;
33022;SDS011;19390;51.460;5.710;2023-12-20T01:33:17;14.65;;;3.38;;
33022;SDS011;19390;51.460;5.710;2023-12-20T01:35:43;21.15;;;3.53;;
33022;SDS011;19390;51.460;5.710;2023-12-20T01:38:08;26.60;;;3.47;;
33022;SDS011;19390;51.460;5.710;2023-12-20T01:40:34;13.45;;;2.88;;
33022;SDS011;19390;51.460;5.710;2023-12-20T01:43:06;10.85;;;2.22;;
33022;SDS011;19390;51.460;5.710;2023-12-20T01:45:37;11.60;;;2.50;;
33022;SDS011;19390;51.460;5.710;2023-12-20T01:48:03;15.07;;;2.47;;
33022;SDS011;19390;51.460;5.710;2023-12-20T01:50:30;9.52;;;2.45;;
33022;SDS011;19390;51.460;5.710;2023-12-20T01:52:57;16.52;;;3.08;;
33022;SDS011;19390;51.460;5.710;2023-12-20T01:55:25;13.68;;;2.60;;
33022;SDS011;19390;51.460;5.710;2023-12-20T01:57:52;11.90;;;1.90;;
33022;SDS011;19390;51.460;5.710;2023-12-20T02:00:18;9.23;;;2.60;;
33022;SDS011;19390;51.460;5.710;2023-12-20T02:02:48;21.95;;;2.45;;
33022;SDS011;19390;51.460;5.710;2023-12-20T02:05:15;13.00;;;2.25;;
33022;SDS011;19390;51.460;5.710;2023-12-20T02:07:42;12.63;;;2.72;;
33022;SDS011;19390;51.460;5.710;2023-12-20T02:10:07;14.57;;;2.45;;
33022;SDS011;19390;51.460;5.710;2023-12-20T02:12:33;15.40;;;2.80;;
33022;SDS011;19390;51.460;5.710;2023-12-20T02:14:58;21.13;;;2.70;;
33022;SDS011;19390;51.460;5.710;2023-12-20T02:17:25;26.25;;;3.03;;
33022;SDS011;19390;51.460;5.710;2023-12-20T02:19:51;23.77;;;3.63;;
33022;SDS011;19390;51.460;5.710;2023-12-20T02:22:16;9.25;;;2.95;;
33022;SDS011;19390;51.460;5.710;2023-12-20T02:24:42;16.75;;;2.55;;
33022;SDS011;19390;51.460;5.710;2023-12-20T02:27:08;13.68;;;2.78;;
33022;SDS011;19390;51.460;5.710;2023-12-20T02:29:34;11.05;;;2.88;;
33022;SDS011;19390;51.460;5.710;2023-12-20T02:32:00;15.85;;;3.40;;
33022;SDS011;19390;51.460;5.710;2023-12-20T02:34:26;18.75;;;2.75;;
33022;SDS011;19390;51.460;5.710;2023-12-20T02:36:52;17.52;;;2.95;;
33022;SDS011;19390;51.460;5.710;2023-12-20T02:39:19;22.88;;;3.35;;
33022;SDS011;19390;51.460;5.710;2023-12-20T02:41:45;27.70;;;3.53;;
33022;SDS011;19390;51.460;5.710;2023-12-20T02:44:11;17.08;;;3.08;;
33022;SDS011;19390;51.460;5.710;2023-12-20T02:46:37;10.82;;;2.17;;
33022;SDS011;19390;51.460;5.710;2023-12-20T02:49:02;10.75;;;3.03;;
33022;SDS011;19390;51.460;5.710;2023-12-20T02:51:28;13.40;;;2.75;;
33022;SDS011;19390;51.460;5.710;2023-12-20T02:53:53;15.15;;;3.22;;
33022;SDS011;19390;51.460;5.710;2023-12-20T02:56:19;26.23;;;3.13;;
33022;SDS011;19390;51.460;5.710;2023-12-20T02:58:45;12.45;;;3.15;;
33022;SDS011;19390;51.460;5.710;2023-12-20T03:01:10;24.73;;;3.33;;
33022;SDS011;19390;51.460;5.710;2023-12-20T03:03:36;15.43;;;2.63;;
33022;SDS011;19390;51.460;5.710;2023-12-20T03:06:01;16.30;;;3.30;;
33022;SDS011;19390;51.460;5.710;2023-12-20T03:08:27;10.68;;;2.15;;
33022;SDS011;19390;51.460;5.710;2023-12-20T03:10:52;17.35;;;3.35;;
33022;SDS011;19390;51.460;5.710;2023-12-20T03:13:18;19.73;;;3.22;;
33022;SDS011;19390;51.460;5.710;2023-12-20T03:15:44;20.05;;;3.08;;
33022;SDS011;19390;51.460;5.710;2023-12-20T03:18:10;17.92;;;3.65;;
33022;SDS011;19390;51.460;5.710;2023-12-20T03:20:36;17.25;;;3.22;;
33022;SDS011;19390;51.460;5.710;2023-12-20T03:23:01;19.23;;;3.10;;
33022;SDS011;19390;51.460;5.710;2023-12-20T03:25:27;16.63;;;2.83;;
33022;SDS011;19390;51.460;5.710;2023-12-20T03:27:53;19.38;;;4.00;;
33022;SDS011;19390;51.460;5.710;2023-12-20T03:30:19;23.13;;;3.20;;
33022;SDS011;19390;51.460;5.710;2023-12-20T03:32:44;17.88;;;2.95;;
33022;SDS011;19390;51.460;5.710;2023-12-20T03:35:10;12.45;;;2.90;;
33022;SDS011;19390;51.460;5.710;2023-12-20T03:37:36;17.70;;;3.53;;
33022;SDS011;19390;51.460;5.710;2023-12-20T03:40:02;11.70;;;3.50;;
33022;SDS011;19390;51.460;5.710;2023-12-20T03:42:28;17.33;;;4.65;;
33022;SDS011;19390;51.460;5.710;2023-12-20T03:44:53;21.23;;;3.55;;
33022;SDS011;19390;51.460;5.710;2023-12-20T03:47:19;17.75;;;5.22;;
33022;SDS011;19390;51.460;5.710;2023-12-20T03:49:45;17.25;;;4.45;;
33022;SDS011;19390;51.460;5.710;2023-12-20T03:52:10;13.05;;;3.97;;
33022;SDS011;19390;51.460;5.710;2023-12-20T03:54:36;15.23;;;3.97;;
33022;SDS011;19390;51.460;5.710;2023-12-20T03:57:02;20.10;;;4.43;;
33022;SDS011;19390;51.460;5.710;2023-12-20T03:59:28;25.45;;;4.60;;
33022;SDS011;19390;51.460;5.710;2023-12-20T04:01:54;18.13;;;4.18;;
33022;SDS011;19390;51.460;5.710;2023-12-20T04:04:20;17.13;;;5.30;;
33022;SDS011;19390;51.460;5.710;2023-12-20T04:06:45;15.25;;;4.55;;
33022;SDS011;19390;51.460;5.710;2023-12-20T04:09:11;17.75;;;4.95;;
33022;SDS011;19390;51.460;5.710;2023-12-20T04:11:37;23.55;;;4.55;;
33022;SDS011;19390;51.460;5.710;2023-12-20T04:14:02;14.50;;;4.60;;
33022;SDS011;19390;51.460;5.710;2023-12-20T04:16:30;19.58;;;5.45;;
33022;SDS011;19390;51.460;5.710;2023-12-20T04:18:55;19.20;;;5.22;;
33022;SDS011;19390;51.460;5.710;2023-12-20T04:21:21;21.83;;;5.78;;
33022;SDS011;19390;51.460;5.710;2023-12-20T04:23:46;12.48;;;4.50;;
33022;SDS011;19390;51.460;5.710;2023-12-20T04:26:12;19.35;;;4.50;;
33022;SDS011;19390;51.460;5.710;2023-12-20T04:28:38;23.88;;;4.78;;
33022;SDS011;19390;51.460;5.710;2023-12-20T04:31:04;18.15;;;4.03;;
33022;SDS011;19390;51.460;5.710;2023-12-20T04:33:29;25.60;;;5.30;;
33022;SDS011;19390;51.460;5.710;2023-12-20T04:35:55;17.13;;;4.78;;
33022;SDS011;19390;51.460;5.710;2023-12-20T04:38:20;14.80;;;3.95;;
33022;SDS011;19390;51.460;5.710;2023-12-20T04:40:46;19.92;;;5.63;;
33022;SDS011;19390;51.460;5.710;2023-12-20T04:43:13;14.10;;;3.95;;
33022;SDS011;19390;51.460;5.710;2023-12-20T04:45:38;22.23;;;5.22;;
33022;SDS011;19390;51.460;5.710;2023-12-20T04:48:04;13.18;;;4.32;;
33022;SDS011;19390;51.460;5.710;2023-12-20T04:50:30;22.95;;;5.55;;
33022;SDS011;19390;51.460;5.710;2023-12-20T04:52:55;18.42;;;4.95;;
33022;SDS011;19390;51.460;5.710;2023-12-20T04:55:21;18.92;;;4.43;;
33022;SDS011;19390;51.460;5.710;2023-12-20T04:57:46;20.90;;;3.97;;
33022;SDS011;19390;51.460;5.710;2023-12-20T05:00:12;15.48;;;3.70;;
33022;SDS011;19390;51.460;5.710;2023-12-20T05:02:40;15.38;;;3.83;;
33022;SDS011;19390;51.460;5.710;2023-12-20T05:05:06;22.52;;;4.32;;
33022;SDS011;19390;51.460;5.710;2023-12-20T05:07:31;24.95;;;4.63;;
33022;SDS011;19390;51.460;5.710;2023-12-20T05:09:57;23.70;;;4.10;;
33022;SDS011;19390;51.460;5.710;2023-12-20T05:12:23;18.63;;;4.68;;
33022;SDS011;19390;51.460;5.710;2023-12-20T05:14:49;19.85;;;4.47;;
33022;SDS011;19390;51.460;5.710;2023-12-20T05:17:15;21.70;;;5.03;;
33022;SDS011;19390;51.460;5.710;2023-12-20T05:19:41;14.57;;;4.45;;
33022;SDS011;19390;51.460;5.710;2023-12-20T05:22:06;19.92;;;4.43;;
33022;SDS011;19390;51.460;5.710;2023-12-20T05:24:32;14.48;;;4.32;;
33022;SDS011;19390;51.460;5.710;2023-12-20T05:26:58;22.45;;;4.88;;
33022;SDS011;19390;51.460;5.710;2023-12-20T05:29:23;17.95;;;4.65;;
33022;SDS011;19390;51.460;5.710;2023-12-20T05:31:49;19.90;;;4.38;;
33022;SDS011;19390;51.460;5.710;2023-12-20T05:34:14;25.70;;;4.80;;
33022;SDS011;19390;51.460;5.710;2023-12-20T05:36:40;21.77;;;4.50;;
33022;SDS011;19390;51.460;5.710;2023-12-20T05:39:05;13.75;;;4.03;;
33022;SDS011;19390;51.460;5.710;2023-12-20T05:41:32;23.02;;;5.78;;
33022;SDS011;19390;51.460;5.710;2023-12-20T05:43:58;21.20;;;4.95;;
33022;SDS011;19390;51.460;5.710;2023-12-20T05:46:24;17.00;;;5.28;;
33022;SDS011;19390;51.460;5.710;2023-12-20T05:48:50;17.55;;;5.10;;
33022;SDS011;19390;51.460;5.710;2023-12-20T05:51:16;20.48;;;4.13;;
33022;SDS011;19390;51.460;5.710;2023-12-20T05:53:43;19.63;;;4.30;;
33022;SDS011;19390;51.460;5.710;2023-12-20T05:56:09;17.20;;;4.20;;
33022;SDS011;19390;51.460;5.710;2023-12-20T05:58:35;9.68;;;3.75;;
33022;SDS011;19390;51.460;5.710;2023-12-20T06:01:04;21.50;;;5.63;;
33022;SDS011;19390;51.460;5.710;2023-12-20T06:03:30;16.83;;;4.78;;
33022;SDS011;19390;51.460;5.710;2023-12-20T06:05:56;17.58;;;4.63;;
33022;SDS011;19390;51.460;5.710;2023-12-20T06:08:21;18.77;;;4.82;;
33022;SDS011;19390;51.460;5.710;2023-12-20T06:10:47;26.73;;;4.70;;
33022;SDS011;19390;51.460;5.710;2023-12-20T06:13:13;17.60;;;4.72;;
33022;SDS011;19390;51.460;5.710;2023-12-20T06:15:38;24.23;;;4.72;;
33022;SDS011;19390;51.460;5.710;2023-12-20T06:18:05;22.85;;;5.28;;
33022;SDS011;19390;51.460;5.710;2023-12-20T06:20:31;23.20;;;4.93;;
33022;SDS011;19390;51.460;5.710;2023-12-20T06:22:57;26.73;;;5.30;;
33022;SDS011;19390;51.460;5.710;2023-12-20T06:25:22;23.40;;;4.40;;
33022;SDS011;19390;51.460;5.710;2023-12-20T06:27:48;29.50;;;6.15;;
33022;SDS011;19390;51.460;5.710;2023-12-20T06:30:13;20.42;;;4.20;;
33022;SDS011;19390;51.460;5.710;2023-12-20T06:32:40;35.95;;;5.15;;
33022;SDS011;19390;51.460;5.710;2023-12-20T06:35:07;23.52;;;4.50;;
33022;SDS011;19390;51.460;5.710;2023-12-20T06:37:33;19.25;;;5.13;;
33022;SDS011;19390;51.460;5.710;2023-12-20T06:39:59;18.73;;;4.75;;
33022;SDS011;19390;51.460;5.710;2023-12-20T06:42:25;19.60;;;4.60;;
33022;SDS011;19390;51.460;5.710;2023-12-20T06:44:50;22.50;;;4.65;;
33022;SDS011;19390;51.460;5.710;2023-12-20T06:47:16;22.65;;;3.83;;
33022;SDS011;19390;51.460;5.710;2023-12-20T06:49:41;25.50;;;4.18;;
33022;SDS011;19390;51.460;5.710;2023-12-20T06:52:07;13.90;;;3.75;;
33022;SDS011;19390;51.460;5.710;2023-12-20T06:54:33;22.67;;;3.80;;
33022;SDS011;19390;51.460;5.710;2023-12-20T06:56:59;17.85;;;3.92;;
33022;SDS011;19390;51.460;5.710;2023-12-20T06:59:25;20.65;;;3.78;;
33022;SDS011;19390;51.460;5.710;2023-12-20T07:01:51;20.23;;;4.00;;
33022;SDS011;19390;51.460;5.710;2023-12-20T07:04:17;22.90;;;4.00;;
33022;SDS011;19390;51.460;5.710;2023-12-20T07:06:46;22.88;;;3.55;;
33022;SDS011;19390;51.460;5.710;2023-12-20T07:09:13;24.55;;;4.18;;
33022;SDS011;19390;51.460;5.710;2023-12-20T07:11:39;24.52;;;4.18;;
33022;SDS011;19390;51.460;5.710;2023-12-20T07:14:04;17.75;;;3.88;;
33022;SDS011;19390;51.460;5.710;2023-12-20T07:16:30;23.15;;;3.67;;
33022;SDS011;19390;51.460;5.710;2023-12-20T07:18:56;15.25;;;4.55;;
33022;SDS011;19390;51.460;5.710;2023-12-20T07:21:22;19.40;;;3.60;;
33022;SDS011;19390;51.460;5.710;2023-12-20T07:23:49;27.50;;;4.70;;
33022;SDS011;19390;51.460;5.710;2023-12-20T07:26:15;20.75;;;3.25;;
33022;SDS011;19390;51.460;5.710;2023-12-20T07:28:40;17.50;;;3.58;;
33022;SDS011;19390;51.460;5.710;2023-12-20T07:31:06;25.77;;;4.38;;
33022;SDS011;19390;51.460;5.710;2023-12-20T07:33:31;25.02;;;3.75;;
33022;SDS011;19390;51.460;5.710;2023-12-20T07:35:57;17.75;;;3.53;;
33022;SDS011;19390;51.460;5.710;2023-12-20T07:38:24;22.23;;;3.75;;
33022;SDS011;19390;51.460;5.710;2023-12-20T07:40:50;15.85;;;3.25;;
33022;SDS011;19390;51.460;5.710;2023-12-20T07:43:15;16.85;;;3.45;;
33022;SDS011;19390;51.460;5.710;2023-12-20T07:45:41;19.48;;;3.35;;
33022;SDS011;19390;51.460;5.710;2023-12-20T07:48:07;29.67;;;7.68;;
33022;SDS011;19390;51.460;5.710;2023-12-20T07:50:33;20.92;;;3.75;;
33022;SDS011;19390;51.460;5.710;2023-12-20T07:52:59;17.70;;;3.50;;
33022;SDS011;19390;51.460;5.710;2023-12-20T07:55:26;18.20;;;4.22;;
33022;SDS011;19390;51.460;5.710;2023-12-20T07:57:52;21.25;;;4.90;;
33022;SDS011;19390;51.460;5.710;2023-12-20T08:00:18;22.77;;;4.00;;
33022;SDS011;19390;51.460;5.710;2023-12-20T08:02:44;15.73;;;3.90;;
33022;SDS011;19390;51.460;5.710;2023-12-20T08:05:09;19.40;;;4.03;;
33022;SDS011;19390;51.460;5.710;2023-12-20T08:07:35;15.32;;;3.58;;
33022;SDS011;19390;51.460;5.710;2023-12-20T08:10:01;16.50;;;3.63;;
33022;SDS011;19390;51.460;5.710;2023-12-20T08:12:26;16.27;;;2.67;;
33022;SDS011;19390;51.460;5.710;2023-12-20T08:14:53;13.98;;;3.25;;
33022;SDS011;19390;51.460;5.710;2023-12-20T08:17:19;21.77;;;3.95;;
33022;SDS011;19390;51.460;5.710;2023-12-20T08:19:45;13.02;;;3.50;;
33022;SDS011;19390;51.460;5.710;2023-12-20T08:22:10;12.95;;;2.63;;
33022;SDS011;19390;51.460;5.710;2023-12-20T08:24:36;12.98;;;2.83;;
33022;SDS011;19390;51.460;5.710;2023-12-20T08:27:03;19.77;;;3.80;;
33022;SDS011;19390;51.460;5.710;2023-12-20T08:29:29;16.55;;;3.45;;
33022;SDS011;19390;51.460;5.710;2023-12-20T08:31:55;17.02;;;3.58;;
33022;SDS011;19390;51.460;5.710;2023-12-20T08:34:21;23.70;;;3.47;;
33022;SDS011;19390;51.460;5.710;2023-12-20T08:36:47;16.10;;;3.90;;
33022;SDS011;19390;51.460;5.710;2023-12-20T08:39:12;22.17;;;2.90;;
33022;SDS011;19390;51.460;5.710;2023-12-20T08:41:38;14.48;;;3.58;;
33022;SDS011;19390;51.460;5.710;2023-12-20T08:44:03;19.70;;;3.78;;
33022;SDS011;19390;51.460;5.710;2023-12-20T08:46:29;13.73;;;3.03;;
33022;SDS011;19390;51.460;5.710;2023-12-20T08:48:55;25.58;;;3.55;;
33022;SDS011;19390;51.460;5.710;2023-12-20T08:51:20;16.50;;;3.63;;
33022;SDS011;19390;51.460;5.710;2023-12-20T08:53:48;12.82;;;3.67;;
33022;SDS011;19390;51.460;5.710;2023-12-20T08:56:14;13.13;;;3.33;;
33022;SDS011;19390;51.460;5.710;2023-12-20T08:58:39;22.05;;;3.63;;
33022;SDS011;19390;51.460;5.710;2023-12-20T09:01:05;15.32;;;3.08;;
33022;SDS011;19390;51.460;5.710;2023-12-20T09:03:32;17.35;;;3.58;;
33022;SDS011;19390;51.460;5.710;2023-12-20T09:05:58;11.38;;;2.85;;
33022;SDS011;19390;51.460;5.710;2023-12-20T09:08:23;14.27;;;4.00;;
33022;SDS011;19390;51.460;5.710;2023-12-20T09:10:49;16.55;;;3.53;;
33022;SDS011;19390;51.460;5.710;2023-12-20T09:13:15;14.43;;;2.78;;
33022;SDS011;19390;51.460;5.710;2023-12-20T09:15:40;18.95;;;3.35;;
33022;SDS011;19390;51.460;5.710;2023-12-20T09:18:06;12.02;;;3.05;;
33022;SDS011;19390;51.460;5.710;2023-12-20T09:20:32;13.40;;;3.45;;
33022;SDS011;19390;51.460;5.710;2023-12-20T09:22:58;17.85;;;3.42;;
33022;SDS011;19390;51.460;5.710;2023-12-20T09:25:24;15.68;;;3.75;;
33022;SDS011;19390;51.460;5.710;2023-12-20T09:27:51;16.77;;;3.90;;
33022;SDS011;19390;51.460;5.710;2023-12-20T09:30:17;15.32;;;3.08;;
33022;SDS011;19390;51.460;5.710;2023-12-20T09:32:43;18.30;;;4.53;;
33022;SDS011;19390;51.460;5.710;2023-12-20T09:35:09;19.73;;;3.42;;
33022;SDS011;19390;51.460;5.710;2023-12-20T09:37:35;17.48;;;3.03;;
33022;SDS011;19390;51.460;5.710;2023-12-20T09:40:01;11.13;;;2.55;;
33022;SDS011;19390;51.460;5.710;2023-12-20T09:42:29;19.73;;;3.40;;
33022;SDS011;19390;51.460;5.710;2023-12-20T09:45:05;13.90;;;2.90;;
33022;SDS011;19390;51.460;5.710;2023-12-20T09:47:34;20.40;;;3.75;;
33022;SDS011;19390;51.460;5.710;2023-12-20T09:50:01;24.15;;;3.55;;
33022;SDS011;19390;51.460;5.710;2023-12-20T09:52:27;13.52;;;3.67;;
33022;SDS011;19390;51.460;5.710;2023-12-20T09:54:54;13.10;;;3.67;;
33022;SDS011;19390;51.460;5.710;2023-12-20T09:57:22;17.65;;;3.17;;
33022;SDS011;19390;51.460;5.710;2023-12-20T09:59:47;15.52;;;3.13;;
33022;SDS011;19390;51.460;5.710;2023-12-20T10:02:13;14.60;;;3.15;;
33022;SDS011;19390;51.460;5.710;2023-12-20T10:04:47;12.73;;;2.85;;
33022;SDS011;19390;51.460;5.710;2023-12-20T10:07:13;19.63;;;3.95;;
33022;SDS011;19390;51.460;5.710;2023-12-20T10:09:39;12.27;;;3.47;;
33022;SDS011;19390;51.460;5.710;2023-12-20T10:12:05;17.83;;;4.00;;
33022;SDS011;19390;51.460;5.710;2023-12-20T10:14:32;13.77;;;3.65;;
33022;SDS011;19390;51.460;5.710;2023-12-20T10:17:04;23.20;;;4.43;;
33022;SDS011;19390;51.460;5.710;2023-12-20T10:19:31;13.45;;;3.33;;
33022;SDS011;19390;51.460;5.710;2023-12-20T10:21:59;12.00;;;3.63;;
33022;SDS011;19390;51.460;5.710;2023-12-20T10:24:25;13.55;;;3.13;;
33022;SDS011;19390;51.460;5.710;2023-12-20T10:29:35;14.55;;;3.40;;
33022;SDS011;19390;51.460;5.710;2023-12-20T10:32:21;15.32;;;3.80;;
33022;SDS011;19390;51.460;5.710;2023-12-20T10:34:49;21.73;;;3.75;;
33022;SDS011;19390;51.460;5.710;2023-12-20T10:37:15;16.83;;;4.13;;
33022;SDS011;19390;51.460;5.710;2023-12-20T10:39:41;18.35;;;4.22;;
33022;SDS011;19390;51.460;5.710;2023-12-20T10:42:09;15.40;;;3.55;;
33022;SDS011;19390;51.460;5.710;2023-12-20T10:44:36;11.40;;;3.30;;
33022;SDS011;19390;51.460;5.710;2023-12-20T10:47:02;9.50;;;2.97;;
33022;SDS011;19390;51.460;5.710;2023-12-20T10:49:29;15.25;;;3.63;;
33022;SDS011;19390;51.460;5.710;2023-12-20T10:51:56;14.68;;;3.08;;
33022;SDS011;19390;51.460;5.710;2023-12-20T10:54:24;15.63;;;4.10;;
33022;SDS011;19390;51.460;5.710;2023-12-20T10:56:50;15.13;;;3.50;;
33022;SDS011;19390;51.460;5.710;2023-12-20T10:59:19;17.95;;;3.33;;
33022;SDS011;19390;51.460;5.710;2023-12-20T11:01:47;14.18;;;2.70;;
33022;SDS011;19390;51.460;5.710;2023-12-20T11:04:15;15.02;;;3.55;;
33022;SDS011;19390;51.460;5.710;2023-12-20T11:06:53;19.90;;;3.63;;
33022;SDS011;19390;51.460;5.710;2023-12-20T11:09:25;16.45;;;3.45;;
33022;SDS011;19390;51.460;5.710;2023-12-20T11:12:02;14.23;;;3.28;;
33022;SDS011;19390;51.460;5.710;2023-12-20T11:14:42;16.92;;;3.83;;
33022;SDS011;19390;51.460;5.710;2023-12-20T11:17:12;13.02;;;3.05;;
33022;SDS011;19390;51.460;5.710;2023-12-20T11:20:03;20.50;;;3.65;;
33022;SDS011;19390;51.460;5.710;2023-12-20T11:22:31;14.40;;;2.90;;
33022;SDS011;19390;51.460;5.710;2023-12-20T11:27:30;20.17;;;3.40;;
33022;SDS011;19390;51.460;5.710;2023-12-20T11:29:57;17.52;;;4.13;;
33022;SDS011;19390;51.460;5.710;2023-12-20T11:34:50;16.10;;;3.65;;
33022;SDS011;19390;51.460;5.710;2023-12-20T11:37:16;19.60;;;4.10;;
33022;SDS011;19390;51.460;5.710;2023-12-20T11:39:45;23.30;;;3.85;;
33022;SDS011;19390;51.460;5.710;2023-12-20T11:42:19;15.32;;;3.92;;
33022;SDS011;19390;51.460;5.710;2023-12-20T11:44:45;23.85;;;4.18;;
33022;SDS011;19390;51.460;5.710;2023-12-20T11:47:12;16.15;;;4.07;;
33022;SDS011;19390;51.460;5.710;2023-12-20T11:49:38;19.63;;;3.97;;
33022;SDS011;19390;51.460;5.710;2023-12-20T11:52:05;24.08;;;6.55;;
33022;SDS011;19390;51.460;5.710;2023-12-20T11:54:30;15.80;;;3.60;;
33022;SDS011;19390;51.460;5.710;2023-12-20T11:56:56;21.40;;;4.93;;
33022;SDS011;19390;51.460;5.710;2023-12-20T11:59:22;22.90;;;4.10;;
33022;SDS011;19390;51.460;5.710;2023-12-20T12:01:48;24.45;;;4.47;;
33022;SDS011;19390;51.460;5.710;2023-12-20T12:04:15;11.80;;;3.92;;
33022;SDS011;19390;51.460;5.710;2023-12-20T12:06:42;17.10;;;4.38;;
33022;SDS011;19390;51.460;5.710;2023-12-20T12:09:08;14.65;;;4.43;;
33022;SDS011;19390;51.460;5.710;2023-12-20T12:11:34;28.55;;;4.63;;
33022;SDS011;19390;51.460;5.710;2023-12-20T12:14:00;13.52;;;3.67;;
33022;SDS011;19390;51.460;5.710;2023-12-20T12:16:26;20.17;;;4.47;;
33022;SDS011;19390;51.460;5.710;2023-12-20T12:18:55;15.18;;;4.20;;
33022;SDS011;19390;51.460;5.710;2023-12-20T12:21:21;18.45;;;4.60;;
33022;SDS011;19390;51.460;5.710;2023-12-20T12:23:47;15.93;;;4.15;;
33022;SDS011;19390;51.460;5.710;2023-12-20T12:26:13;22.50;;;4.78;;
33022;SDS011;19390;51.460;5.710;2023-12-20T12:28:42;20.45;;;5.05;;
33022;SDS011;19390;51.460;5.710;2023-12-20T12:31:08;11.38;;;4.40;;
33022;SDS011;19390;51.460;5.710;2023-12-20T12:33:38;17.08;;;5.03;;
33022;SDS011;19390;51.460;5.710;2023-12-20T12:36:04;17.15;;;5.18;;
33022;SDS011;19390;51.460;5.710;2023-12-20T12:38:32;17.08;;;4.85;;
33022;SDS011;19390;51.460;5.710;2023-12-20T12:40:57;20.35;;;4.95;;
33022;SDS011;19390;51.460;5.710;2023-12-20T12:43:23;24.48;;;5.57;;
33022;SDS011;19390;51.460;5.710;2023-12-20T12:45:49;19.55;;;4.65;;
33022;SDS011;19390;51.460;5.710;2023-12-20T12:48:15;20.52;;;4.55;;
33022;SDS011;19390;51.460;5.710;2023-12-20T12:50:40;20.85;;;6.10;;
33022;SDS011;19390;51.460;5.710;2023-12-20T12:53:06;19.75;;;6.20;;
33022;SDS011;19390;51.460;5.710;2023-12-20T12:55:31;18.98;;;5.00;;
33022;SDS011;19390;51.460;5.710;2023-12-20T12:57:58;17.55;;;5.93;;
33022;SDS011;19390;51.460;5.710;2023-12-20T13:00:23;22.42;;;5.90;;
33022;SDS011;19390;51.460;5.710;2023-12-20T13:02:50;16.98;;;5.60;;
33022;SDS011;19390;51.460;5.710;2023-12-20T13:05:15;21.30;;;5.45;;
33022;SDS011;19390;51.460;5.710;2023-12-20T13:07:41;14.88;;;6.13;;
33022;SDS011;19390;51.460;5.710;2023-12-20T13:10:10;13.25;;;5.00;;
33022;SDS011;19390;51.460;5.710;2023-12-20T13:12:35;21.92;;;6.10;;
33022;SDS011;19390;51.460;5.710;2023-12-20T13:15:01;21.92;;;6.30;;
33022;SDS011;19390;51.460;5.710;2023-12-20T13:17:28;15.82;;;5.97;;
33022;SDS011;19390;51.460;5.710;2023-12-20T13:19:54;19.15;;;6.25;;
33022;SDS011;19390;51.460;5.710;2023-12-20T13:22:20;22.35;;;5.88;;
33022;SDS011;19390;51.460;5.710;2023-12-20T13:24:45;18.00;;;5.65;;
33022;SDS011;19390;51.460;5.710;2023-12-20T13:27:11;20.92;;;6.28;;
33022;SDS011;19390;51.460;5.710;2023-12-20T13:29:36;26.38;;;6.82;;
33022;SDS011;19390;51.460;5.710;2023-12-20T13:32:02;27.17;;;5.85;;
33022;SDS011;19390;51.460;5.710;2023-12-20T13:34:28;21.20;;;6.07;;
33022;SDS011;19390;51.460;5.710;2023-12-20T13:36:54;22.63;;;6.28;;
33022;SDS011;19390;51.460;5.710;2023-12-20T13:39:21;23.27;;;6.40;;
33022;SDS011;19390;51.460;5.710;2023-12-20T13:41:47;10.73;;;5.50;;
33022;SDS011;19390;51.460;5.710;2023-12-20T13:44:12;13.27;;;6.13;;
33022;SDS011;19390;51.460;5.710;2023-12-20T13:46:38;22.33;;;6.35;;
33022;SDS011;19390;51.460;5.710;2023-12-20T13:49:04;20.90;;;6.00;;
33022;SDS011;19390;51.460;5.710;2023-12-20T13:51:30;17.55;;;6.20;;
33022;SDS011;19390;51.460;5.710;2023-12-20T13:53:56;23.10;;;5.88;;
33022;SDS011;19390;51.460;5.710;2023-12-20T13:56:22;17.27;;;5.50;;
33022;SDS011;19390;51.460;5.710;2023-12-20T13:58:48;14.98;;;5.55;;
33022;SDS011;19390;51.460;5.710;2023-12-20T14:01:15;14.43;;;5.55;;
33022;SDS011;19390;51.460;5.710;2023-12-20T14:03:40;21.10;;;5.32;;
33022;SDS011;19390;51.460;5.710;2023-12-20T14:06:06;17.60;;;5.20;;
33022;SDS011;19390;51.460;5.710;2023-12-20T14:08:32;14.88;;;4.82;;
33022;SDS011;19390;51.460;5.710;2023-12-20T14:10:57;17.08;;;5.38;;
33022;SDS011;19390;51.460;5.710;2023-12-20T14:13:23;18.52;;;5.15;;
33022;SDS011;19390;51.460;5.710;2023-12-20T14:15:49;22.83;;;7.13;;
33022;SDS011;19390;51.460;5.710;2023-12-20T14:18:14;15.43;;;4.97;;
33022;SDS011;19390;51.460;5.710;2023-12-20T14:20:40;20.85;;;5.57;;
33022;SDS011;19390;51.460;5.710;2023-12-20T14:23:07;19.10;;;6.20;;
33022;SDS011;19390;51.460;5.710;2023-12-20T14:25:34;18.95;;;5.15;;
33022;SDS011;19390;51.460;5.710;2023-12-20T14:28:02;18.38;;;5.57;;
33022;SDS011;19390;51.460;5.710;2023-12-20T14:30:28;20.38;;;5.25;;
33022;SDS011;19390;51.460;5.710;2023-12-20T14:32:54;20.02;;;6.03;;
33022;SDS011;19390;51.460;5.710;2023-12-20T14:35:20;25.17;;;5.55;;
33022;SDS011;19390;51.460;5.710;2023-12-20T14:37:45;10.88;;;4.47;;